Cisco Butte, California Weather observations

Data are for observation ending at time listed.
 Day   Time    Ave.   Ave.  Ave.  Vector   Max.   Stn.    Total    Solar   Ave.   Snow 
  of    of     Air    Rel.  Wind   Wind    Wind   Baro.  Precip.   Rad.    Soil   Depth
Year   Day     Temp.  Hum.  Speed  Dir.    Gust   Pres.                    Temp.       
2016   (PST)    F      %     mph   deg.    mph     mb.     in.     W/m2     F      in. 
---------------------------------------------------------------------------------------  
 119    7:50   37.4    65    9.9    92     18.8   817.0    0.00     292    999.0  159.1
 119    8:00   37.8    64   10.7    92     21.7   817.0    0.00     314    999.0  159.3
 119    8:10   37.8    64   10.8    99     22.2   817.0    0.00     337    999.0  159.3
 119    8:20   38.0    64   11.0    99     20.2   817.0    0.00     327    999.0  159.3
 119    8:30   37.7    64   13.1    96     24.1   817.0    0.00     379    999.0  159.4
 119    8:40   38.2    63   12.7    99     21.3   817.0    0.00     398    999.0  159.4
 119    8:50   38.4    62   14.3    94     26.2   817.0    0.00     416    999.0  159.4
 119    9:00   38.3    62   16.2    94     25.9   817.0    0.00     442    999.0  159.4
 119    9:10   38.5    62   15.9   100     25.4   817.0    0.00     454    999.0  159.4
 119    9:20   39.1    61   13.0    93     27.8   817.0    0.00     478    999.0  159.4
 119    9:30   39.8    60   12.0    95     19.4   818.0    0.00     493    999.0  159.4
 119    9:40   40.1    60    8.4    92     19.4   818.0    0.00     511    999.0  159.4
 119    9:50   40.7    59    8.5    89     17.2   818.0    0.00     549    999.0  159.3
 119   10:00   40.2    59   10.6    92     20.2   818.0    0.00     514    999.0  159.4
 119   10:10   40.8    58   10.9    97     18.3   818.0    0.00     519    999.0  159.4
 119   10:20   41.0    57   11.4    94     18.7   818.0    0.00     521    999.0  159.4
 119   10:30   41.2    57    9.7    97     19.3   818.0    0.00     538    999.0  159.3
 119   10:40   42.0    54   12.3    91     21.8   818.0    0.00     575    999.0  159.3
 119   10:50   42.0    55   14.1    91     20.7   818.0    0.00     583    999.0  159.3
 119   11:00   42.6    54   10.8    92     17.8   818.0    0.00     592    999.0  159.3
 119   11:10   43.1    53   11.0    91     19.9   818.0    0.00     606    999.0  159.3
 119   11:20   43.4    53   11.5    96     19.6   818.0    0.00     621    999.0  159.3
 119   11:30   43.7    52   10.4    94     20.5   818.0    0.00     627    999.0  159.3
 119   11:40   44.1    51    9.1    90     20.0   818.0    0.00     636    999.0  159.2
 119   11:50   44.1    51    9.0    90     15.9   818.0    0.00     634    999.0  159.2
 119   12:00   44.2    51    8.4    86     16.7   818.0    0.00     632    999.0  159.2
 119   12:10   45.3    50    5.8    85     15.7   818.0    0.00     629    999.0  159.2
 119   12:20   45.6    48    6.9   100     15.7   818.0    0.00     625    999.0  159.2
 119   12:30   46.3    45    7.3    87     16.4   818.0    0.00     624    999.0  159.2
 119   12:40   45.9    46    5.1    67     14.4   819.0    0.00     621    999.0  159.2
 119   12:50   46.5    46    5.2   109     13.9   819.0    0.00     554    999.0  159.2
 119   13:00   46.3    45    8.0   104     16.6   819.0    0.00     422    999.0  159.2
 119   13:10   46.2    45    7.5   100     15.3   819.0    0.00     398    999.0  159.2
 119   13:20   46.1    45    4.9   112     10.0   819.0    0.00     455    999.0  159.2
 119   13:30   47.6    43    4.6    77     11.9   819.0    0.00     363    999.0  159.2
 119   13:40   46.5    44    7.9    97     15.8   819.0    0.00     599    999.0  159.2
 119   13:50   47.0    42    6.7    98     12.8   819.0    0.00     570    999.0  159.2
 119   14:00   48.2    41    5.3    93     12.1   819.0    0.00     596    999.0  159.2
 119   14:10   48.1    41    5.5    78     10.7   819.0    0.00     466    999.0  159.2
 119   14:20   47.6    40    8.3   104     16.0   819.0    0.00     538    999.0  159.3
 119   14:30   47.4    40    6.4   102     14.1   819.0    0.00     351    999.0  159.3
 119   14:40   49.0    39    3.7   122      9.7   819.0    0.00     510    999.0  159.2
 119   14:50   48.3    39    6.4   102     11.5   819.0    0.00     521    999.0  159.2
 119   15:00   48.2    39    4.3    80     11.9   819.0    0.00     330    999.0  159.3
 119   15:10   49.4    37    3.6   130     12.3   819.0    0.00     430    999.0  159.1
 119   15:20   50.4    35    2.5   150     10.9   819.0    0.00     436    999.0  158.9
 119   15:30   51.2    33    4.2   320     10.8   819.0    0.00     446    999.0  158.8
 119   15:40   51.2    35    3.6   242     10.2   819.0    0.00     398    999.0  158.4
 119   15:50   51.5    34    4.1    68     10.6   819.0    0.00     214    999.0  158.5
 119   16:00   49.0    38    4.9   106     15.1   819.0    0.00     142    999.0  158.8
 119   16:10   47.7    39    7.0    98     12.8   819.0    0.00     114    999.0  159.2
 119   16:20   48.3    39    2.1    33      8.2   819.0    0.00     136    999.0  159.3
 119   16:30   48.3    39    2.5     5      7.1   819.0    0.00     107    999.0  159.3
 119   16:40   48.1    40    3.4    79      7.7   819.0    0.00      92    999.0  159.3
 119   16:50   47.6    52    8.8   275     13.4   819.0    0.00      69    999.0  159.3
 119   17:00   46.6    60    8.6   277     12.6   819.0    0.00      61    999.0  159.3
 119   17:10   46.3    61    8.0   279     11.2   819.0    0.00      72    999.0  159.3
 119   17:20   47.0    60    7.5   276     11.0   819.0    0.00     101    999.0  159.3
 119   17:30   46.6    61    7.7   276     10.7   819.0    0.00      59    999.0  159.3
 119   17:40   46.5    62    6.9   276     10.2   819.0    0.00      56    999.0  159.3
 119   17:50   46.9    62    7.4   277     10.4   819.0    0.00      43    999.0  159.3
 119   18:00   47.7    60    5.6   278      9.1   820.0    0.00      25    999.0  159.3
 119   18:10   47.6    59    5.7   276      8.2   820.0    0.00      18    999.0  159.3
 119   18:20   45.9    63    6.9   278      9.6   820.0    0.00      20    999.0  159.3
 119   18:30   45.0    66    7.7   277      9.9   820.0    0.00      13    999.0  159.2
 119   18:40  999.0   999  999.0   999    999.0   999.0   999.00     999    999.0  999.0
 119   18:50   44.6    67    3.7   284      6.9   820.0    0.00       4    999.0  159.2
 119   19:00   44.4    68    1.4   259      5.2   820.0    0.00       2    999.0  159.2
 119   19:10   44.1    70    1.9   259      4.4   820.0    0.00       1    999.0  159.3
 119   19:20   43.4    71    3.0   271      5.2   820.0    0.00       0    999.0  159.2
 119   19:30   42.7    73    2.7   274      4.7   820.0    0.00       0    999.0  159.3
 119   19:40   42.3    73    3.4   284      4.6   820.0    0.00       0    999.0  159.4
 119   19:50   42.1    73    3.1   280      4.2   820.0    0.00       0    999.0  159.4
 119   20:00   41.8    73    3.0   276      4.7   820.0    0.00       0    999.0  159.4
 119   20:10   41.5    74    0.7   285      3.5   821.0    0.00       0    999.0  159.4
 119   20:20   41.7    72    0.1    72      1.2   821.0    0.00       0    999.0  159.4
 119   20:30   42.2    70    0.5    89      1.4   821.0    0.00       0    999.0  159.4
 119   20:40   41.8    71    0.0     0      0.0   821.0    0.00       0    999.0  159.4
 119   20:50   41.4    71    0.1   240      0.9   821.0    0.00       0    999.0  159.4
 119   21:00   40.9    74    0.0     0      0.0   821.0    0.00       0    999.0  159.4
 119   21:10   40.5    72    1.3   106      3.5   821.0    0.00       0    999.0  127.3
 119   21:20   39.1    68    2.2    95      3.1   821.0    0.00       0    999.0  144.0
 119   21:30   39.0    69    2.6    84      3.7   821.0    0.00       0    999.0  159.4
 119   21:40   39.0    72    3.8    87      6.2   821.0    0.00       0    999.0   88.4
 119   21:50   37.6    72    4.7    87      7.5   821.0    0.00       0    999.0  159.4
 119   22:00   37.2    72    4.9    81      7.1   821.0    0.00       0    999.0  159.3
 119   22:10   38.1    73    4.6    83      6.9   821.0    0.00       0    999.0   87.9
 119   22:20   37.2    73    5.3   102      8.8   821.0    0.00       0    999.0  120.3
 119   22:30   37.0    71    4.6    97      7.8   821.0    0.00       0    999.0  159.4
 119   22:40   37.4    70    4.9   101      8.1   821.0    0.00       0    999.0  159.4
 119   22:50   37.6    70    4.0    87      6.5   821.0    0.00       0    999.0  159.4
 119   23:00   37.5    70    3.4    84      5.8   821.0    0.00       0    999.0  159.4
 119   23:10   37.0    70    4.0    95      6.6   821.0    0.00       0    999.0  159.4
 119   23:20   36.7    71    4.5   106      8.1   821.0    0.00       0    999.0  159.4
 119   23:30   36.1    73    6.0   114      9.9   821.0    0.00       0    999.0  159.4
 119   23:40   35.9    73    6.4   119      9.8   821.0    0.00       0    999.0  159.4
 119   23:50   36.4    73    5.4   124      9.7   821.0    0.00       0    999.0  143.2
 120    0:00   36.7    72    4.7   116      7.5   821.0    0.00       0    999.0  104.6
 120    0:10   37.1    71    6.0   121      7.9   821.0    0.00       0    999.0  159.4
 120    0:20   37.4    69    6.5   117      8.6   821.0    0.00       0    999.0  159.4
 120    0:30   37.8    66    7.7   106     10.4   821.0    0.00       0    999.0  159.4
 120    0:40   37.1    67    6.9   111      9.7   821.0    0.00       0    999.0  159.4
 120    0:50   37.0    67    7.0   107     10.4   821.0    0.00       0    999.0  159.3
 120    1:00   37.1    66    6.9   102      9.4   821.0    0.00       0    999.0  159.2
 120    1:10   37.0    66    6.1   103      8.3   821.0    0.00       0    999.0  159.3
 120    1:20   36.7    67    5.7    99      9.8   821.0    0.00       0    999.0  159.2
 120    1:30   36.5    67    5.2    97      7.6   821.0    0.00       0    999.0  159.2
 120    1:40   36.1    68    5.7    99      8.8   821.0    0.00       0    999.0  159.5
 120    1:50   36.1    68    5.0    98      7.0   821.0    0.00       0    999.0  159.6
 120    2:00   36.4    67    4.7   108      8.1   821.0    0.00       0    999.0  159.5
 120    2:10   36.8    66    3.5    99      6.6   821.0    0.00       0    999.0  159.4
 120    2:20   37.1    65    3.5    95      5.9   821.0    0.00       0    999.0  159.3
 120    2:30   37.1    65    2.6    82      4.3   821.0    0.00       0    999.0  159.2
 120    2:40   37.6    63    2.7    81      4.4   821.0    0.00       0    999.0  159.2
 120    2:50   38.1    62    2.4    89      4.6   821.0    0.00       0    999.0  159.2
 120    3:00   37.9    63    2.8    86      4.4   821.0    0.00       0    999.0  159.4
 120    3:10   36.0    68    3.4    76      6.2   821.0    0.00       0    999.0  159.5
 120    3:20   35.2    70    4.5    86      6.7   821.0    0.00       0    999.0  159.5
 120    3:30   35.2    70    4.5    88      6.9   821.0    0.00       0    999.0  159.6
 120    3:40   35.6    68    4.3    93      6.5   821.0    0.00       0    999.0  159.6
 120    3:50   35.6    68    3.4    82      5.6   821.0    0.00       0    999.0  159.6
 120    4:00   35.6    68    2.9    73      5.3   821.0    0.00       0    999.0  159.6
 120    4:10   36.1    67    1.3    76      3.7   821.0    0.00       0    999.0  159.6
 120    4:20   36.5    66    2.1    89      3.9   821.0    0.00       0    999.0  159.6
 120    4:30   35.6    69    2.6    85      5.7   821.0    0.00       0    999.0  159.6
 120    4:40   34.5    72    3.4    86      5.9   821.0    0.00       0    999.0  159.5
 120    4:50   35.3    69    3.5    80      5.9   821.0    0.00       0    999.0  159.6
 120    5:00   35.9    68    2.7    67      4.5   821.0    0.00       0    999.0  159.6
 120    5:10   34.8    71    2.2    80      4.3   821.0    0.00       2    999.0  159.5
 120    5:20   34.8    71    2.4    75      3.7   821.0    0.00       6    999.0  159.5
 120    5:30   35.2    70    2.8    82      4.6   821.0    0.00      14    999.0  159.5
 120    5:40   35.9    69    2.2    74      3.4   821.0    0.00      30    999.0  159.5
 120    5:50   36.6    68    2.8    94      4.6   821.0    0.00      59    999.0  159.5
 120    6:00   36.3    69    3.6    86      5.9   821.0    0.00      83    999.0  159.4
 120    6:10   37.1    67    2.5    77      5.0   821.0    0.00      98    999.0  159.4
 120    6:20   38.4    65    2.2    82      3.5   821.0    0.00     108    999.0  159.4
 120    6:30   39.5    64    1.2   113      2.7   821.0    0.00     131    999.0  159.4
 120    6:40   40.9    62    0.7   222      4.0   821.0    0.00     103    999.0  159.3
 120    6:50   42.4    60    4.4   282      7.2   821.0    0.00     110    999.0  159.3
 120    7:00   42.4    60    4.9   286      6.8   821.0    0.00     107    999.0  159.3
 120    7:10   42.3    61    4.0   286      6.6   821.0    0.00      98    999.0  159.3
 120    7:20   42.6    60    3.5   283      5.4   821.0    0.00     136    999.0  159.3
 120    7:30   44.0    58    2.2   278      3.9   821.0    0.00     211    999.0  159.3
 120    7:40   44.9    56    4.8   272      9.3   822.0    0.00     152    999.0  159.2

Return to Cisco Butte graphs page.


Western Regional Climate Center,wrcc@dri.edu